sensor_id;sensor_type;location;lat;lon;timestamp;pressure;altitude;pressure_sealevel;temperature;humidity
43804;BME280;29430;52.924;-2.388;2023-04-03T00:03:34;100773.94;;;3.23;86.14
43804;BME280;29430;52.924;-2.388;2023-04-03T00:08:27;100770.84;;;3.18;86.43
43804;BME280;29430;52.924;-2.388;2023-04-03T00:13:22;100775.63;;;3.15;86.64
43804;BME280;29430;52.924;-2.388;2023-04-03T00:18:13;100777.91;;;3.10;86.71
43804;BME280;29430;52.924;-2.388;2023-04-03T00:23:05;100783.69;;;3.05;86.55
43804;BME280;29430;52.924;-2.388;2023-04-03T00:27:57;100772.56;;;3.00;87.09
43804;BME280;29430;52.924;-2.388;2023-04-03T00:32:50;100768.47;;;2.96;86.98
43804;BME280;29430;52.924;-2.388;2023-04-03T00:37:43;100768.06;;;2.91;87.38
43804;BME280;29430;52.924;-2.388;2023-04-03T00:42:36;100757.03;;;2.84;87.40
43804;BME280;29430;52.924;-2.388;2023-04-03T00:47:29;100773.53;;;2.79;87.72
43804;BME280;29430;52.924;-2.388;2023-04-03T00:52:25;100759.03;;;2.72;88.44
43804;BME280;29430;52.924;-2.388;2023-04-03T00:57:18;100754.81;;;2.69;88.75
43804;BME280;29430;52.924;-2.388;2023-04-03T01:02:10;100762.00;;;2.69;88.81
43804;BME280;29430;52.924;-2.388;2023-04-03T01:07:10;100760.72;;;2.63;89.11
43804;BME280;29430;52.924;-2.388;2023-04-03T01:22:44;100775.09;;;2.53;89.22
43804;BME280;29430;52.924;-2.388;2023-04-03T01:27:41;100763.69;;;2.50;89.36
43804;BME280;29430;52.924;-2.388;2023-04-03T01:32:33;100755.06;;;2.47;89.22
43804;BME280;29430;52.924;-2.388;2023-04-03T01:37:25;100757.88;;;2.45;89.31
43804;BME280;29430;52.924;-2.388;2023-04-03T01:42:16;100762.53;;;2.43;89.75
43804;BME280;29430;52.924;-2.388;2023-04-03T01:47:08;100756.63;;;2.40;89.33
43804;BME280;29430;52.924;-2.388;2023-04-03T01:52:00;100747.84;;;2.38;89.33
43804;BME280;29430;52.924;-2.388;2023-04-03T01:56:52;100745.19;;;2.28;89.78
43804;BME280;29430;52.924;-2.388;2023-04-03T02:01:43;100744.22;;;2.29;89.48
43804;BME280;29430;52.924;-2.388;2023-04-03T02:06:36;100745.31;;;2.26;89.45
43804;BME280;29430;52.924;-2.388;2023-04-03T02:11:28;100742.91;;;2.23;89.94
43804;BME280;29430;52.924;-2.388;2023-04-03T02:16:20;100743.19;;;2.20;89.88
43804;BME280;29430;52.924;-2.388;2023-04-03T02:21:11;100739.81;;;2.18;89.84
43804;BME280;29430;52.924;-2.388;2023-04-03T02:26:08;100734.16;;;2.11;90.09
43804;BME280;29430;52.924;-2.388;2023-04-03T02:31:01;100736.13;;;2.09;89.98
43804;BME280;29430;52.924;-2.388;2023-04-03T02:35:54;100730.06;;;2.07;89.99
43804;BME280;29430;52.924;-2.388;2023-04-03T02:40:47;100725.00;;;2.04;90.16
43804;BME280;29430;52.924;-2.388;2023-04-03T02:45:38;100729.06;;;1.99;90.51
43804;BME280;29430;52.924;-2.388;2023-04-03T02:50:30;100735.78;;;1.93;90.65
43804;BME280;29430;52.924;-2.388;2023-04-03T02:55:21;100736.19;;;1.88;90.89
43804;BME280;29430;52.924;-2.388;2023-04-03T03:00:13;100729.72;;;1.81;91.35
43804;BME280;29430;52.924;-2.388;2023-04-03T03:05:06;100729.00;;;1.79;91.11
43804;BME280;29430;52.924;-2.388;2023-04-03T03:09:58;100725.06;;;1.73;91.02
43804;BME280;29430;52.924;-2.388;2023-04-03T03:14:50;100730.66;;;1.70;91.26
43804;BME280;29430;52.924;-2.388;2023-04-03T03:19:42;100727.53;;;1.65;91.56
43804;BME280;29430;52.924;-2.388;2023-04-03T03:24:34;100718.94;;;1.61;91.69
43804;BME280;29430;52.924;-2.388;2023-04-03T03:29:25;100724.44;;;1.60;91.65
43804;BME280;29430;52.924;-2.388;2023-04-03T03:34:17;100731.75;;;1.58;91.79
43804;BME280;29430;52.924;-2.388;2023-04-03T03:39:09;100732.00;;;1.55;91.75
43804;BME280;29430;52.924;-2.388;2023-04-03T03:44:01;100728.59;;;1.53;91.85
43804;BME280;29430;52.924;-2.388;2023-04-03T03:48:53;100719.19;;;1.49;92.17
43804;BME280;29430;52.924;-2.388;2023-04-03T03:53:44;100721.38;;;1.43;92.31
43804;BME280;29430;52.924;-2.388;2023-04-03T03:58:36;100718.16;;;1.40;92.24
43804;BME280;29430;52.924;-2.388;2023-04-03T04:03:28;100723.63;;;1.38;92.53
43804;BME280;29430;52.924;-2.388;2023-04-03T04:08:20;100717.84;;;1.33;92.73
43804;BME280;29430;52.924;-2.388;2023-04-03T04:13:12;100716.41;;;1.29;92.65
43804;BME280;29430;52.924;-2.388;2023-04-03T04:18:04;100711.19;;;1.28;92.43
43804;BME280;29430;52.924;-2.388;2023-04-03T04:22:56;100707.09;;;1.23;92.68
43804;BME280;29430;52.924;-2.388;2023-04-03T04:27:47;100704.69;;;1.20;92.78
43804;BME280;29430;52.924;-2.388;2023-04-03T04:32:39;100706.78;;;1.17;93.03
43804;BME280;29430;52.924;-2.388;2023-04-03T04:37:31;100708.75;;;1.15;92.98
43804;BME280;29430;52.924;-2.388;2023-04-03T04:42:22;100710.69;;;1.13;93.70
43804;BME280;29430;52.924;-2.388;2023-04-03T04:47:14;100709.13;;;1.10;93.39
43804;BME280;29430;52.924;-2.388;2023-04-03T04:52:06;100705.16;;;1.04;93.53
43804;BME280;29430;52.924;-2.388;2023-04-03T04:56:58;100710.75;;;1.01;93.78
43804;BME280;29430;52.924;-2.388;2023-04-03T05:01:49;100713.69;;;0.98;93.98
43804;BME280;29430;52.924;-2.388;2023-04-03T05:06:41;100712.25;;;0.94;94.40
43804;BME280;29430;52.924;-2.388;2023-04-03T05:11:33;100716.88;;;0.92;94.63
43804;BME280;29430;52.924;-2.388;2023-04-03T05:16:25;100717.16;;;0.89;95.21
43804;BME280;29430;52.924;-2.388;2023-04-03T05:21:16;100719.94;;;0.87;95.04
43804;BME280;29430;52.924;-2.388;2023-04-03T05:26:09;100729.81;;;0.87;95.39
43804;BME280;29430;52.924;-2.388;2023-04-03T05:31:01;100739.47;;;0.88;95.77
43804;BME280;29430;52.924;-2.388;2023-04-03T05:35:54;100728.09;;;0.86;95.45
43804;BME280;29430;52.924;-2.388;2023-04-03T05:40:46;100739.03;;;0.83;95.37
43804;BME280;29430;52.924;-2.388;2023-04-03T05:45:38;100742.81;;;0.80;95.76
43804;BME280;29430;52.924;-2.388;2023-04-03T05:50:30;100744.63;;;0.80;95.88
43804;BME280;29430;52.924;-2.388;2023-04-03T05:55:21;100738.47;;;0.79;96.15
43804;BME280;29430;52.924;-2.388;2023-04-03T06:00:14;100737.47;;;0.80;96.12
43804;BME280;29430;52.924;-2.388;2023-04-03T06:05:09;100740.00;;;0.82;96.31
43804;BME280;29430;52.924;-2.388;2023-04-03T06:10:03;100738.06;;;0.84;96.84
43804;BME280;29430;52.924;-2.388;2023-04-03T06:14:55;100743.16;;;0.87;97.03
43804;BME280;29430;52.924;-2.388;2023-04-03T06:19:47;100739.22;;;0.91;97.52
43804;BME280;29430;52.924;-2.388;2023-04-03T06:24:39;100741.38;;;0.97;97.46
43804;BME280;29430;52.924;-2.388;2023-04-03T06:29:31;100732.84;;;1.03;97.62
43804;BME280;29430;52.924;-2.388;2023-04-03T06:34:23;100732.06;;;1.13;97.88
43804;BME280;29430;52.924;-2.388;2023-04-03T06:39:17;100745.22;;;1.25;97.15
43804;BME280;29430;52.924;-2.388;2023-04-03T06:44:09;100727.00;;;1.40;97.09
43804;BME280;29430;52.924;-2.388;2023-04-03T06:49:02;100728.53;;;1.64;96.64
43804;BME280;29430;52.924;-2.388;2023-04-03T06:53:57;100728.03;;;1.90;95.54
43804;BME280;29430;52.924;-2.388;2023-04-03T06:58:49;100735.16;;;2.20;94.70
43804;BME280;29430;52.924;-2.388;2023-04-03T07:03:42;100738.84;;;2.39;93.03
43804;BME280;29430;52.924;-2.388;2023-04-03T07:08:34;100744.94;;;2.50;91.54
43804;BME280;29430;52.924;-2.388;2023-04-03T07:13:26;100731.94;;;2.85;91.67
43804;BME280;29430;52.924;-2.388;2023-04-03T07:18:18;100726.25;;;3.17;88.59
43804;BME280;29430;52.924;-2.388;2023-04-03T07:23:10;100728.66;;;3.68;88.13
43804;BME280;29430;52.924;-2.388;2023-04-03T07:28:02;100723.03;;;4.35;86.71
43804;BME280;29430;52.924;-2.388;2023-04-03T07:32:53;100729.41;;;5.14;82.02
43804;BME280;29430;52.924;-2.388;2023-04-03T07:37:45;100724.91;;;5.75;78.08
43804;BME280;29430;52.924;-2.388;2023-04-03T07:42:37;100727.16;;;6.31;74.67
43804;BME280;29430;52.924;-2.388;2023-04-03T07:47:30;100717.94;;;6.74;73.31
43804;BME280;29430;52.924;-2.388;2023-04-03T07:52:23;100712.19;;;7.19;70.81
43804;BME280;29430;52.924;-2.388;2023-04-03T07:57:15;100717.84;;;7.48;69.67
43804;BME280;29430;52.924;-2.388;2023-04-03T08:02:11;100713.69;;;7.85;68.24
43804;BME280;29430;52.924;-2.388;2023-04-03T08:07:04;100724.31;;;8.18;65.42
43804;BME280;29430;52.924;-2.388;2023-04-03T08:11:56;100724.16;;;8.43;65.34
43804;BME280;29430;52.924;-2.388;2023-04-03T08:16:48;100721.56;;;8.81;65.78
43804;BME280;29430;52.924;-2.388;2023-04-03T08:21:40;100711.81;;;9.33;61.91
43804;BME280;29430;52.924;-2.388;2023-04-03T08:26:32;100722.84;;;9.61;61.04
43804;BME280;29430;52.924;-2.388;2023-04-03T08:31:24;100724.69;;;9.91;59.81
43804;BME280;29430;52.924;-2.388;2023-04-03T08:36:22;100717.84;;;10.10;57.79
43804;BME280;29430;52.924;-2.388;2023-04-03T08:41:38;100715.84;;;10.55;56.71
43804;BME280;29430;52.924;-2.388;2023-04-03T08:46:56;100729.72;;;10.60;56.93
43804;BME280;29430;52.924;-2.388;2023-04-03T08:51:51;100731.84;;;10.65;55.77
43804;BME280;29430;52.924;-2.388;2023-04-03T08:56:42;100717.13;;;10.74;55.61
43804;BME280;29430;52.924;-2.388;2023-04-03T09:01:37;100724.53;;;10.87;54.20
43804;BME280;29430;52.924;-2.388;2023-04-03T09:06:32;100717.09;;;10.96;52.62
43804;BME280;29430;52.924;-2.388;2023-04-03T09:11:44;100704.19;;;11.04;54.22
43804;BME280;29430;52.924;-2.388;2023-04-03T09:21:39;100708.41;;;11.63;52.52
43804;BME280;29430;52.924;-2.388;2023-04-03T09:31:43;100689.06;;;12.35;51.93
43804;BME280;29430;52.924;-2.388;2023-04-03T09:41:29;100688.22;;;12.41;51.43
43804;BME280;29430;52.924;-2.388;2023-04-03T09:46:32;100684.47;;;12.56;50.37
43804;BME280;29430;52.924;-2.388;2023-04-03T09:51:28;100680.72;;;12.50;50.29
43804;BME280;29430;52.924;-2.388;2023-04-03T09:56:23;100683.56;;;12.15;48.91
43804;BME280;29430;52.924;-2.388;2023-04-03T10:01:37;100683.38;;;11.81;51.00
43804;BME280;29430;52.924;-2.388;2023-04-03T10:06:31;100689.28;;;11.92;50.50
43804;BME280;29430;52.924;-2.388;2023-04-03T10:11:23;100694.38;;;12.02;50.57
43804;BME280;29430;52.924;-2.388;2023-04-03T10:16:19;100693.72;;;11.93;51.14
43804;BME280;29430;52.924;-2.388;2023-04-03T10:21:44;100694.50;;;12.35;51.69
43804;BME280;29430;52.924;-2.388;2023-04-03T10:26:45;100692.44;;;12.57;48.98
43804;BME280;29430;52.924;-2.388;2023-04-03T10:31:45;100691.97;;;12.33;48.35
43804;BME280;29430;52.924;-2.388;2023-04-03T10:36:44;100708.84;;;12.09;48.90
43804;BME280;29430;52.924;-2.388;2023-04-03T10:47:20;100687.97;;;12.23;50.93
43804;BME280;29430;52.924;-2.388;2023-04-03T10:52:32;100684.28;;;12.50;49.83
43804;BME280;29430;52.924;-2.388;2023-04-03T10:57:31;100682.78;;;12.41;49.17
43804;BME280;29430;52.924;-2.388;2023-04-03T11:02:24;100684.28;;;12.57;48.52
43804;BME280;29430;52.924;-2.388;2023-04-03T11:07:30;100680.28;;;12.46;48.59
43804;BME280;29430;52.924;-2.388;2023-04-03T11:12:38;100676.94;;;12.44;48.80
43804;BME280;29430;52.924;-2.388;2023-04-03T11:17:36;100672.53;;;12.43;48.80
43804;BME280;29430;52.924;-2.388;2023-04-03T11:22:33;100676.56;;;11.92;48.78
43804;BME280;29430;52.924;-2.388;2023-04-03T11:27:37;100660.41;;;11.84;49.81
43804;BME280;29430;52.924;-2.388;2023-04-03T11:47:47;100654.34;;;13.11;46.85
43804;BME280;29430;52.924;-2.388;2023-04-03T11:57:50;100642.19;;;13.00;47.78
43804;BME280;29430;52.924;-2.388;2023-04-03T12:02:53;100643.41;;;13.31;47.15
43804;BME280;29430;52.924;-2.388;2023-04-03T12:13:16;100628.75;;;13.32;45.52
43804;BME280;29430;52.924;-2.388;2023-04-03T12:23:36;100618.75;;;12.92;48.64
43804;BME280;29430;52.924;-2.388;2023-04-03T12:28:35;100617.66;;;13.06;47.25
43804;BME280;29430;52.924;-2.388;2023-04-03T12:38:57;100603.25;;;12.86;47.68
43804;BME280;29430;52.924;-2.388;2023-04-03T12:54:26;100570.41;;;12.47;48.86
43804;BME280;29430;52.924;-2.388;2023-04-03T12:59:20;100583.16;;;12.27;49.10
43804;BME280;29430;52.924;-2.388;2023-04-03T13:04:12;100574.56;;;12.16;49.98
43804;BME280;29430;52.924;-2.388;2023-04-03T13:09:05;100573.94;;;12.21;49.09
43804;BME280;29430;52.924;-2.388;2023-04-03T13:14:00;100573.50;;;12.11;49.53
43804;BME280;29430;52.924;-2.388;2023-04-03T13:18:54;100558.00;;;12.05;49.63
43804;BME280;29430;52.924;-2.388;2023-04-03T13:23:48;100550.06;;;11.96;50.18
43804;BME280;29430;52.924;-2.388;2023-04-03T13:28:48;100542.06;;;11.88;50.76
43804;BME280;29430;52.924;-2.388;2023-04-03T13:34:22;100549.16;;;11.89;50.43
43804;BME280;29430;52.924;-2.388;2023-04-03T13:54:23;100518.75;;;11.52;52.38
43804;BME280;29430;52.924;-2.388;2023-04-03T14:04:26;100513.53;;;11.51;51.90
43804;BME280;29430;52.924;-2.388;2023-04-03T14:09:21;100503.88;;;11.41;52.59
43804;BME280;29430;52.924;-2.388;2023-04-03T14:14:17;100491.97;;;11.36;52.82
43804;BME280;29430;52.924;-2.388;2023-04-03T14:19:25;100499.66;;;11.32;53.05
43804;BME280;29430;52.924;-2.388;2023-04-03T14:24:17;100503.88;;;11.41;54.54
43804;BME280;29430;52.924;-2.388;2023-04-03T14:29:10;100497.00;;;11.45;52.77
43804;BME280;29430;52.924;-2.388;2023-04-03T14:34:02;100478.81;;;11.39;54.24
43804;BME280;29430;52.924;-2.388;2023-04-03T14:38:55;100471.06;;;11.36;54.08
43804;BME280;29430;52.924;-2.388;2023-04-03T14:43:47;100475.25;;;11.39;53.48
43804;BME280;29430;52.924;-2.388;2023-04-03T14:48:38;100468.75;;;11.33;53.01
43804;BME280;29430;52.924;-2.388;2023-04-03T14:53:30;100464.59;;;11.37;54.63
43804;BME280;29430;52.924;-2.388;2023-04-03T14:58:29;100462.50;;;11.39;54.59
43804;BME280;29430;52.924;-2.388;2023-04-03T15:03:21;100460.25;;;11.50;53.59
43804;BME280;29430;52.924;-2.388;2023-04-03T15:08:20;100466.31;;;11.52;53.56
43804;BME280;29430;52.924;-2.388;2023-04-03T15:13:13;100451.69;;;11.53;53.82
43804;BME280;29430;52.924;-2.388;2023-04-03T15:18:05;100449.38;;;11.56;52.77
43804;BME280;29430;52.924;-2.388;2023-04-03T15:22:57;100446.06;;;11.61;52.24
43804;BME280;29430;52.924;-2.388;2023-04-03T15:27:48;100434.97;;;11.56;53.74
43804;BME280;29430;52.924;-2.388;2023-04-03T15:32:40;100443.94;;;11.50;53.92
43804;BME280;29430;52.924;-2.388;2023-04-03T15:37:32;100437.44;;;11.51;54.60
43804;BME280;29430;52.924;-2.388;2023-04-03T15:42:24;100427.03;;;11.61;54.99
43804;BME280;29430;52.924;-2.388;2023-04-03T15:47:16;100435.19;;;11.61;53.60
43804;BME280;29430;52.924;-2.388;2023-04-03T15:52:08;100426.59;;;11.51;54.69
43804;BME280;29430;52.924;-2.388;2023-04-03T15:56:59;100434.53;;;11.45;54.93
43804;BME280;29430;52.924;-2.388;2023-04-03T16:01:52;100436.19;;;11.40;55.70
43804;BME280;29430;52.924;-2.388;2023-04-03T16:06:44;100433.88;;;11.37;55.04
43804;BME280;29430;52.924;-2.388;2023-04-03T16:11:37;100429.72;;;11.34;55.30
43804;BME280;29430;52.924;-2.388;2023-04-03T16:16:31;100438.88;;;11.33;56.07
43804;BME280;29430;52.924;-2.388;2023-04-03T16:21:23;100423.22;;;11.28;55.78
43804;BME280;29430;52.924;-2.388;2023-04-03T16:26:15;100425.31;;;11.26;55.46
43804;BME280;29430;52.924;-2.388;2023-04-03T16:31:09;100418.19;;;11.25;56.01
43804;BME280;29430;52.924;-2.388;2023-04-03T16:36:01;100419.41;;;11.23;56.98
43804;BME280;29430;52.924;-2.388;2023-04-03T16:40:53;100424.03;;;11.22;56.21
43804;BME280;29430;52.924;-2.388;2023-04-03T16:45:48;100416.50;;;11.18;56.52
43804;BME280;29430;52.924;-2.388;2023-04-03T16:50:39;100411.69;;;11.13;57.26
43804;BME280;29430;52.924;-2.388;2023-04-03T16:55:31;100408.34;;;11.11;56.47
43804;BME280;29430;52.924;-2.388;2023-04-03T17:00:23;100409.56;;;11.08;56.24
43804;BME280;29430;52.924;-2.388;2023-04-03T17:05:14;100411.66;;;11.06;57.00
43804;BME280;29430;52.924;-2.388;2023-04-03T17:10:07;100412.28;;;11.02;56.23
43804;BME280;29430;52.924;-2.388;2023-04-03T17:14:59;100410.56;;;10.94;56.67
43804;BME280;29430;52.924;-2.388;2023-04-03T17:19:50;100407.63;;;10.89;56.78
43804;BME280;29430;52.924;-2.388;2023-04-03T17:24:43;100402.16;;;10.82;57.23
43804;BME280;29430;52.924;-2.388;2023-04-03T17:29:35;100403.41;;;10.80;57.17
43804;BME280;29430;52.924;-2.388;2023-04-03T17:34:26;100403.81;;;10.77;57.57
43804;BME280;29430;52.924;-2.388;2023-04-03T17:39:18;100395.44;;;10.71;57.66
43804;BME280;29430;52.924;-2.388;2023-04-03T17:44:10;100399.19;;;10.70;58.02
43804;BME280;29430;52.924;-2.388;2023-04-03T17:49:02;100398.97;;;10.65;58.38
43804;BME280;29430;52.924;-2.388;2023-04-03T17:53:55;100393.94;;;10.62;59.14
43804;BME280;29430;52.924;-2.388;2023-04-03T17:58:47;100393.91;;;10.55;59.16
43804;BME280;29430;52.924;-2.388;2023-04-03T18:03:39;100383.44;;;10.46;59.18
43804;BME280;29430;52.924;-2.388;2023-04-03T18:08:34;100393.41;;;10.38;59.83
43804;BME280;29430;52.924;-2.388;2023-04-03T18:13:28;100389.16;;;10.29;60.17
43804;BME280;29430;52.924;-2.388;2023-04-03T18:18:19;100388.47;;;10.20;60.47
43804;BME280;29430;52.924;-2.388;2023-04-03T18:23:11;100398.19;;;10.08;61.08
43804;BME280;29430;52.924;-2.388;2023-04-03T18:28:04;100393.31;;;9.97;61.58
43804;BME280;29430;52.924;-2.388;2023-04-03T18:32:57;100401.84;;;9.94;60.92
43804;BME280;29430;52.924;-2.388;2023-04-03T18:37:49;100406.53;;;9.85;61.12
43804;BME280;29430;52.924;-2.388;2023-04-03T18:42:41;100412.50;;;9.74;61.73
43804;BME280;29430;52.924;-2.388;2023-04-03T18:47:33;100408.66;;;9.61;62.08
43804;BME280;29430;52.924;-2.388;2023-04-03T18:52:27;100404.59;;;9.50;62.39
43804;BME280;29430;52.924;-2.388;2023-04-03T18:57:19;100400.34;;;9.41;62.71
43804;BME280;29430;52.924;-2.388;2023-04-03T19:02:11;100405.88;;;9.33;62.90
43804;BME280;29430;52.924;-2.388;2023-04-03T19:07:03;100406.00;;;9.25;62.63
43804;BME280;29430;52.924;-2.388;2023-04-03T19:11:56;100410.91;;;9.14;63.17
43804;BME280;29430;52.924;-2.388;2023-04-03T19:16:48;100414.75;;;9.05;63.29
43804;BME280;29430;52.924;-2.388;2023-04-03T19:21:40;100419.59;;;8.95;63.71
43804;BME280;29430;52.924;-2.388;2023-04-03T19:26:32;100424.75;;;8.90;63.36
43804;BME280;29430;52.924;-2.388;2023-04-03T19:31:24;100428.03;;;8.85;63.44
43804;BME280;29430;52.924;-2.388;2023-04-03T19:36:17;100427.56;;;8.82;63.38
43804;BME280;29430;52.924;-2.388;2023-04-03T19:41:16;100431.69;;;8.77;64.05
43804;BME280;29430;52.924;-2.388;2023-04-03T19:46:09;100434.28;;;8.71;63.97
43804;BME280;29430;52.924;-2.388;2023-04-03T19:51:01;100433.81;;;8.67;64.14
43804;BME280;29430;52.924;-2.388;2023-04-03T19:55:55;100434.56;;;8.61;64.32
43804;BME280;29430;52.924;-2.388;2023-04-03T20:00:48;100435.31;;;8.55;64.94
43804;BME280;29430;52.924;-2.388;2023-04-03T20:05:40;100441.28;;;8.50;65.06
43804;BME280;29430;52.924;-2.388;2023-04-03T20:10:31;100447.25;;;8.46;65.19
43804;BME280;29430;52.924;-2.388;2023-04-03T20:15:24;100444.44;;;8.39;65.24
43804;BME280;29430;52.924;-2.388;2023-04-03T20:20:16;100435.84;;;8.35;65.54
43804;BME280;29430;52.924;-2.388;2023-04-03T20:25:11;100444.31;;;8.32;65.44
43804;BME280;29430;52.924;-2.388;2023-04-03T20:30:11;100444.41;;;8.24;65.80
43804;BME280;29430;52.924;-2.388;2023-04-03T20:35:03;100444.97;;;8.19;66.15
43804;BME280;29430;52.924;-2.388;2023-04-03T20:39:55;100452.78;;;8.14;66.06
43804;BME280;29430;52.924;-2.388;2023-04-03T20:44:47;100453.16;;;8.11;66.22
43804;BME280;29430;52.924;-2.388;2023-04-03T20:49:39;100451.84;;;8.07;66.40
43804;BME280;29430;52.924;-2.388;2023-04-03T20:54:33;100457.13;;;8.00;66.46
43804;BME280;29430;52.924;-2.388;2023-04-03T20:59:25;100461.59;;;7.93;66.55
43804;BME280;29430;52.924;-2.388;2023-04-03T21:04:25;100450.31;;;7.89;66.97
43804;BME280;29430;52.924;-2.388;2023-04-03T21:20:17;100446.78;;;7.66;67.98
43804;BME280;29430;52.924;-2.388;2023-04-03T21:25:08;100449.84;;;7.63;68.42
43804;BME280;29430;52.924;-2.388;2023-04-03T21:30:00;100455.13;;;7.56;68.68
43804;BME280;29430;52.924;-2.388;2023-04-03T21:34:55;100458.72;;;7.48;69.15
43804;BME280;29430;52.924;-2.388;2023-04-03T21:39:48;100468.53;;;7.41;69.30
43804;BME280;29430;52.924;-2.388;2023-04-03T21:44:40;100470.66;;;7.31;69.76
43804;BME280;29430;52.924;-2.388;2023-04-03T21:49:32;100459.88;;;7.23;70.59
43804;BME280;29430;52.924;-2.388;2023-04-03T21:54:24;100455.19;;;7.16;70.74
43804;BME280;29430;52.924;-2.388;2023-04-03T21:59:15;100463.34;;;7.08;71.41
43804;BME280;29430;52.924;-2.388;2023-04-03T22:04:07;100459.47;;;7.03;71.40
43804;BME280;29430;52.924;-2.388;2023-04-03T22:08:59;100468.44;;;6.95;71.77
43804;BME280;29430;52.924;-2.388;2023-04-03T22:13:52;100470.00;;;6.89;72.41
43804;BME280;29430;52.924;-2.388;2023-04-03T22:18:44;100465.84;;;6.78;72.65
43804;BME280;29430;52.924;-2.388;2023-04-03T22:23:36;100459.31;;;6.65;73.26
43804;BME280;29430;52.924;-2.388;2023-04-03T22:28:30;100462.19;;;6.55;74.24
43804;BME280;29430;52.924;-2.388;2023-04-03T22:33:22;100465.09;;;6.45;74.36
43804;BME280;29430;52.924;-2.388;2023-04-03T22:38:14;100473.38;;;6.35;74.62
43804;BME280;29430;52.924;-2.388;2023-04-03T22:43:06;100469.19;;;6.24;76.68
43804;BME280;29430;52.924;-2.388;2023-04-03T22:47:58;100468.34;;;6.16;76.61
43804;BME280;29430;52.924;-2.388;2023-04-03T22:52:50;100470.72;;;6.02;77.85
43804;BME280;29430;52.924;-2.388;2023-04-03T22:57:48;100475.06;;;5.95;79.19
43804;BME280;29430;52.924;-2.388;2023-04-03T23:02:40;100479.59;;;5.86;79.96
43804;BME280;29430;52.924;-2.388;2023-04-03T23:07:32;100489.34;;;5.79;80.60
43804;BME280;29430;52.924;-2.388;2023-04-03T23:12:24;100493.22;;;5.68;81.50
43804;BME280;29430;52.924;-2.388;2023-04-03T23:17:16;100494.75;;;5.63;82.23
43804;BME280;29430;52.924;-2.388;2023-04-03T23:22:07;100497.22;;;5.56;81.52
43804;BME280;29430;52.924;-2.388;2023-04-03T23:26:59;100499.75;;;5.49;82.20
43804;BME280;29430;52.924;-2.388;2023-04-03T23:31:51;100493.88;;;5.46;82.04
43804;BME280;29430;52.924;-2.388;2023-04-03T23:36:43;100506.28;;;5.38;81.37
43804;BME280;29430;52.924;-2.388;2023-04-03T23:41:35;100507.78;;;5.33;81.33
43804;BME280;29430;52.924;-2.388;2023-04-03T23:46:27;100509.28;;;5.27;81.45
43804;BME280;29430;52.924;-2.388;2023-04-03T23:51:18;100511.66;;;5.22;81.33
43804;BME280;29430;52.924;-2.388;2023-04-03T23:56:11;100511.28;;;5.17;80.73
